Humidity-temperature Sensor

Selected Measurement Type: Relative Humidity

 
Relative Humidity [%]     6 entries per hour
Showing data from 2/11/2023 (00:00:00 Z) to 2/10/2023 (00:01:00 Z)
Previous Next [ Day | 3-Days | 7-Days ]
First Last
Prev [ Day | 3-Days | 7-Days ] Next
First Last

Start Time:     :
End Time:     :     
Time (in GMT) :00 :50 :40 :30 :20 :10
Previous Next [ Day | 3-Days | 7-Days ]
First Last
Prev [ Day | 3-Days | 7-Days ] Next
First Last


123 => good data
MM => data is determined as missing
-- => data not received/configured
Back to Top Back to Top
2/11/2023 00:00 to 23:10 86.98 86.75 87.02 87.43 87.39 87.08
2/10/2023 23:00 to 22:10 86.73 87.31 87.12 87.61 88.11 87.68
2/10/2023 22:00 to 21:10 87.10 86.42 86.57 87.45 88.13 88.35
2/10/2023 21:00 to 20:10 87.80 87.00 86.22 85.46 85.72 86.38
2/10/2023 20:00 to 19:10 86.77 86.67 86.79 87.39 87.72 87.43
2/10/2023 19:00 to 18:10 87.41 87.22 87.06 86.87 86.81 87.12
2/10/2023 18:00 to 17:10 87.41 87.57 87.84 87.92 87.33 87.16
2/10/2023 17:00 to 16:10 87.39 86.83 87.47 87.98 88.74 88.68
2/10/2023 16:00 to 15:10 88.74 88.23 88.03 87.98 88.27 88.54
2/10/2023 15:00 to 14:10 88.33 88.25 89.03 89.48 89.67 89.59
2/10/2023 14:00 to 13:10 89.59 89.55 89.63 89.96 90.08 90.39
2/10/2023 13:00 to 12:10 90.68 90.92 90.92 90.98 91.00 91.25
2/10/2023 12:00 to 11:10 91.42 91.72 92.03 91.79 91.95 91.77
2/10/2023 11:00 to 10:10 91.62 91.56 91.66 91.87 91.79 92.18
2/10/2023 10:00 to 9:10 92.07 92.05 91.87 91.74 91.72 91.87
2/10/2023 09:00 to 8:10 92.14 92.28 92.18 91.99 91.56 91.48
2/10/2023 08:00 to 7:10 91.72 91.50 91.31 91.03 91.03 91.15
2/10/2023 07:00 to 6:10 91.13 91.29 91.11 91.35 91.83 91.60
2/10/2023 06:00 to 5:10 91.58 91.64 91.33 90.88 90.63 90.63
2/10/2023 05:00 to 4:10 90.90 90.84 90.61 90.43 90.06 89.85
2/10/2023 04:00 to 3:10 90.02 89.57 89.44 89.42 89.38 89.40
2/10/2023 03:00 to 2:10 89.18 89.09 88.66 88.52 89.03 89.22
2/10/2023 02:00 to 1:10 89.13 88.85 88.77 88.89 89.18 89.26
2/10/2023 01:00 to 0:10 89.40 89.18 89.50 89.57 89.32 89.36